Time;durP1;ratioP1;P1;durP2;ratioP2;P2;SDS_P1;SDS_P2;PMS_P1;PMS_P2;Temp;Humidity;BMP_temperature;BMP_pressure;BME280_temperature;BME280_humidity;BME280_pressure;Samples;Min_cycle;Max_cycle;Signal;HPM_P1;HPM_P2
2023/10/23 00:01:36;;;;;;;6.07;3.83;;;;;;;;;;5025143;28;20424;-84
2023/10/23 00:04:01;;;;;;;5.05;3.60;;;;;;;;;;5036515;28;20122;-84
2023/10/23 00:06:26;;;;;;;6.18;3.72;;;;;;;;;;5028740;28;20830;-85
2023/10/23 00:08:52;;;;;;;14.73;4.53;;;;;;;;;;5032645;28;20017;-85
2023/10/23 00:11:24;;;;;;;5.10;3.50;;;;;;;;;;5028291;28;20103;-84
2023/10/23 00:13:50;;;;;;;5.25;3.50;;;;;;;;;;5029142;28;20060;-84
2023/10/23 00:16:15;;;;;;;4.60;3.40;;;;;;;;;;5032824;28;20033;-84
2023/10/23 00:18:41;;;;;;;5.20;3.55;;;;;;;;;;5033703;28;20048;-84
2023/10/23 00:21:07;;;;;;;4.57;3.63;;;;;;;;;;5032857;28;20087;-84
2023/10/23 00:23:33;;;;;;;7.05;3.95;;;;;;;;;;5032396;28;20385;-83
2023/10/23 00:25:58;;;;;;;6.15;4.07;;;;;;;;;;5025097;28;20113;-83
2023/10/23 00:28:24;;;;;;;4.32;3.53;;;;;;;;;;5025617;28;20045;-83
2023/10/23 00:30:49;;;;;;;5.35;3.80;;;;;;;;;;5048282;28;20116;-83
2023/10/23 00:33:14;;;;;;;4.82;3.80;;;;;;;;;;5029110;28;20604;-83
2023/10/23 00:35:40;;;;;;;7.22;4.35;;;;;;;;;;5033774;28;20388;-81
2023/10/23 00:38:06;;;;;;;6.95;3.65;;;;;;;;;;5032571;28;20044;-82
2023/10/23 00:40:31;;;;;;;4.90;3.55;;;;;;;;;;5036473;28;20037;-81
2023/10/23 00:42:56;;;;;;;5.47;3.67;;;;;;;;;;5043877;28;20440;-82
2023/10/23 00:45:22;;;;;;;6.68;3.92;;;;;;;;;;5030999;28;20040;-81
2023/10/23 00:47:48;;;;;;;5.13;3.78;;;;;;;;;;5029139;28;20469;-81
2023/10/23 00:50:13;;;;;;;6.07;3.83;;;;;;;;;;5031119;28;20047;-81
2023/10/23 00:52:39;;;;;;;5.55;3.72;;;;;;;;;;5031307;28;20025;-82
2023/10/23 00:55:06;;;;;;;7.05;4.38;;;;;;;;;;5026462;28;20037;-81
2023/10/23 00:57:31;;;;;;;5.72;3.90;;;;;;;;;;5030475;28;20474;-82
2023/10/23 00:59:57;;;;;;;5.75;3.90;;;;;;;;;;5028176;28;20037;-81
2023/10/23 01:02:22;;;;;;;4.95;3.90;;;;;;;;;;5042899;28;20032;-81
2023/10/23 01:04:50;;;;;;;5.25;3.60;;;;;;;;;;5026723;28;20084;-83
2023/10/23 01:07:15;;;;;;;6.22;3.90;;;;;;;;;;5043129;28;20600;-81
2023/10/23 01:09:40;;;;;;;5.50;3.90;;;;;;;;;;5023385;28;20109;-82
2023/10/23 01:12:06;;;;;;;5.13;4.00;;;;;;;;;;5024485;28;20466;-82
2023/10/23 01:14:31;;;;;;;5.38;3.80;;;;;;;;;;5025325;28;20022;-81
2023/10/23 01:16:57;;;;;;;5.75;3.72;;;;;;;;;;5026959;28;20102;-81
2023/10/23 01:19:22;;;;;;;5.65;3.90;;;;;;;;;;5027751;28;20116;-81
2023/10/23 01:21:47;;;;;;;6.60;4.13;;;;;;;;;;5026653;28;22393;-82
2023/10/23 01:24:14;;;;;;;6.55;4.22;;;;;;;;;;5034484;28;20029;-82
2023/10/23 01:26:40;;;;;;;5.30;3.70;;;;;;;;;;5026875;28;20029;-81
2023/10/23 01:29:05;;;;;;;7.50;4.30;;;;;;;;;;5027854;28;20148;-82
2023/10/23 01:31:31;;;;;;;6.47;4.35;;;;;;;;;;5025684;28;20021;-81
2023/10/23 01:33:56;;;;;;;5.13;3.83;;;;;;;;;;5028740;28;20489;-81
2023/10/23 01:36:21;;;;;;;5.43;3.80;;;;;;;;;;5029194;28;20024;-82
2023/10/23 01:38:47;;;;;;;6.20;4.43;;;;;;;;;;5020614;28;20037;-87
2023/10/23 01:41:12;;;;;;;5.93;4.00;;;;;;;;;;5023781;28;20021;-87
2023/10/23 01:43:37;;;;;;;5.75;4.05;;;;;;;;;;5025676;28;20124;-88
2023/10/23 01:46:03;;;;;;;6.10;4.10;;;;;;;;;;5030252;28;20049;-87
2023/10/23 01:48:28;;;;;;;5.97;4.60;;;;;;;;;;5026826;28;20029;-84
2023/10/23 01:50:54;;;;;;;6.18;4.10;;;;;;;;;;5030170;28;20550;-84
2023/10/23 01:53:19;;;;;;;6.10;4.20;;;;;;;;;;5025519;28;20032;-84
2023/10/23 01:55:45;;;;;;;7.13;4.00;;;;;;;;;;5030026;28;20104;-83
2023/10/23 01:58:10;;;;;;;7.65;4.93;;;;;;;;;;5030648;28;20116;-84
2023/10/23 02:00:35;;;;;;;6.60;4.20;;;;;;;;;;5025722;28;20113;-85
2023/10/23 02:03:01;;;;;;;6.13;4.20;;;;;;;;;;5028087;28;20032;-84
2023/10/23 02:05:26;;;;;;;7.90;4.57;;;;;;;;;;5026513;28;20474;-84
2023/10/23 02:07:51;;;;;;;5.68;4.32;;;;;;;;;;5029375;28;20021;-81
2023/10/23 02:10:17;;;;;;;5.35;4.03;;;;;;;;;;5024932;28;20099;-81
2023/10/23 02:12:42;;;;;;;5.47;3.90;;;;;;;;;;5030055;28;20032;-84
2023/10/23 02:15:10;;;;;;;7.05;4.10;;;;;;;;;;5031894;28;20071;-84
2023/10/23 02:17:35;;;;;;;6.07;3.83;;;;;;;;;;5024154;28;20534;-84
2023/10/23 02:20:01;;;;;;;5.68;3.88;;;;;;;;;;5025318;28;20113;-85
2023/10/23 02:22:26;;;;;;;7.82;4.22;;;;;;;;;;5025317;28;20473;-83
2023/10/23 02:24:51;;;;;;;7.20;4.03;;;;;;;;;;5028745;28;20025;-84
2023/10/23 02:27:17;;;;;;;5.82;4.35;;;;;;;;;;5039190;28;20025;-83
2023/10/23 02:29:42;;;;;;;6.20;4.53;;;;;;;;;;5029986;28;20071;-84
2023/10/23 02:32:08;;;;;;;7.55;4.43;;;;;;;;;;5032802;28;20024;-84
2023/10/23 02:34:37;;;;;;;6.95;4.30;;;;;;;;;;5029233;28;20056;-84
2023/10/23 02:37:03;;;;;;;5.78;4.20;;;;;;;;;;5031057;28;20033;-84
2023/10/23 02:39:28;;;;;;;5.97;4.15;;;;;;;;;;5027800;28;20029;-84
2023/10/23 02:41:53;;;;;;;6.35;4.30;;;;;;;;;;5027779;28;20067;-83
2023/10/23 02:44:19;;;;;;;7.43;4.57;;;;;;;;;;5019985;28;20017;-82
2023/10/23 02:46:44;;;;;;;6.07;4.30;;;;;;;;;;5029592;28;20027;-81
2023/10/23 02:49:10;;;;;;;5.32;4.03;;;;;;;;;;5034000;28;20028;-81
2023/10/23 02:51:38;;;;;;;7.78;4.28;;;;;;;;;;5027218;28;20029;-82
2023/10/23 02:54:04;;;;;;;7.32;4.18;;;;;;;;;;5028151;28;20096;-81
2023/10/23 02:56:29;;;;;;;6.82;4.35;;;;;;;;;;5026707;28;20025;-82
2023/10/23 02:58:55;;;;;;;7.65;4.60;;;;;;;;;;5025107;28;20485;-82
2023/10/23 03:01:22;;;;;;;5.63;4.10;;;;;;;;;;5027259;28;20082;-82
2023/10/23 03:03:48;;;;;;;8.85;4.60;;;;;;;;;;5027159;28;20075;-81
2023/10/23 03:06:13;;;;;;;7.43;4.57;;;;;;;;;;5025887;28;20040;-81
2023/10/23 03:08:39;;;;;;;6.78;3.80;;;;;;;;;;5023419;28;20029;-81
2023/10/23 03:11:05;;;;;;;6.70;3.90;;;;;;;;;;5026473;28;20021;-81
2023/10/23 03:13:31;;;;;;;7.35;3.88;;;;;;;;;;5022282;28;20171;-84
2023/10/23 03:15:56;;;;;;;6.07;4.30;;;;;;;;;;5040094;28;20033;-83
2023/10/23 03:18:22;;;;;;;8.65;4.03;;;;;;;;;;5021343;28;20033;-83
2023/10/23 03:20:47;;;;;;;8.13;4.20;;;;;;;;;;5028516;28;20029;-83
2023/10/23 03:23:12;;;;;;;8.25;5.03;;;;;;;;;;5029639;28;20444;-83
2023/10/23 03:25:38;;;;;;;7.63;4.20;;;;;;;;;;5026481;28;20033;-83
2023/10/23 03:28:03;;;;;;;6.43;4.00;;;;;;;;;;5021921;28;20037;-85
2023/10/23 03:30:29;;;;;;;6.72;4.20;;;;;;;;;;5028476;28;20025;-84
2023/10/23 03:32:54;;;;;;;4.93;3.70;;;;;;;;;;5028453;28;20068;-83
2023/10/23 03:35:20;;;;;;;5.45;3.90;;;;;;;;;;5029933;28;20026;-83
2023/10/23 03:37:45;;;;;;;6.60;3.60;;;;;;;;;;5029025;28;20026;-83
2023/10/23 03:40:11;;;;;;;7.07;4.35;;;;;;;;;;5033880;28;20485;-83
2023/10/23 03:42:37;;;;;;;5.47;3.88;;;;;;;;;;5026334;28;20022;-83
2023/10/23 03:45:03;;;;;;;8.15;3.75;;;;;;;;;;5029051;28;20148;-83
2023/10/23 03:47:29;;;;;;;5.95;3.70;;;;;;;;;;5021615;28;20023;-83
2023/10/23 03:49:54;;;;;;;6.00;3.90;;;;;;;;;;5027125;28;20029;-83
2023/10/23 03:52:19;;;;;;;5.65;3.88;;;;;;;;;;5033421;28;20048;-83
2023/10/23 03:54:45;;;;;;;5.53;3.80;;;;;;;;;;5027766;28;20025;-83
2023/10/23 03:57:10;;;;;;;5.93;3.80;;;;;;;;;;5024687;28;20034;-83
2023/10/23 03:59:36;;;;;;;6.55;4.00;;;;;;;;;;5023223;28;20034;-84
2023/10/23 04:02:01;;;;;;;5.78;3.65;;;;;;;;;;5021325;28;20053;-84
2023/10/23 04:04:26;;;;;;;5.53;3.83;;;;;;;;;;5028619;28;20029;-84
2023/10/23 04:06:52;;;;;;;7.68;4.45;;;;;;;;;;5029689;28;20032;-84
2023/10/23 04:09:17;;;;;;;7.03;4.13;;;;;;;;;;5027370;28;20049;-84
2023/10/23 04:11:42;;;;;;;6.32;3.65;;;;;;;;;;5031286;28;20025;-83
2023/10/23 04:14:08;;;;;;;6.13;3.67;;;;;;;;;;5032183;28;20021;-85
2023/10/23 04:16:34;;;;;;;7.07;3.92;;;;;;;;;;5026608;28;20029;-84
2023/10/23 04:18:59;;;;;;;5.35;3.70;;;;;;;;;;5030544;28;20044;-84
2023/10/23 04:21:25;;;;;;;7.65;4.03;;;;;;;;;;5032790;28;20048;-84
2023/10/23 04:23:50;;;;;;;5.63;3.88;;;;;;;;;;5027948;28;20116;-84
2023/10/23 04:26:16;;;;;;;6.43;3.63;;;;;;;;;;5027407;28;20037;-84
2023/10/23 04:28:41;;;;;;;5.63;4.05;;;;;;;;;;5034538;28;20068;-84
2023/10/23 04:31:06;;;;;;;7.20;4.00;;;;;;;;;;5032685;28;20029;-84
2023/10/23 04:33:33;;;;;;;6.13;3.95;;;;;;;;;;5032436;28;20017;-84
2023/10/23 04:35:59;;;;;;;8.20;4.30;;;;;;;;;;5033341;28;20112;-85
2023/10/23 04:38:24;;;;;;;9.38;4.38;;;;;;;;;;5032506;28;20163;-85
2023/10/23 04:40:50;;;;;;;7.95;4.68;;;;;;;;;;5037567;28;20259;-84
2023/10/23 04:43:16;;;;;;;6.10;4.38;;;;;;;;;;5030971;28;20525;-85
2023/10/23 04:45:42;;;;;;;7.93;4.18;;;;;;;;;;5027252;28;20030;-84
2023/10/23 04:48:08;;;;;;;9.05;4.68;;;;;;;;;;5033223;28;20355;-84
2023/10/23 04:50:35;;;;;;;6.95;4.35;;;;;;;;;;5030988;28;20052;-84
2023/10/23 04:53:04;;;;;;;7.78;4.32;;;;;;;;;;5023895;28;20667;-85
2023/10/23 04:55:33;;;;;;;8.98;4.72;;;;;;;;;;5026366;28;20021;-85
2023/10/23 04:58:00;;;;;;;8.45;5.20;;;;;;;;;;5027219;28;20025;-84
2023/10/23 05:00:26;;;;;;;7.95;4.97;;;;;;;;;;5030019;28;20401;-84
2023/10/23 05:02:51;;;;;;;9.52;5.65;;;;;;;;;;5020694;28;20030;-84
2023/10/23 05:05:18;;;;;;;8.07;5.05;;;;;;;;;;5033480;28;20429;-85
2023/10/23 05:07:43;;;;;;;7.75;5.30;;;;;;;;;;5036095;28;20022;-84
2023/10/23 05:10:09;;;;;;;9.20;5.30;;;;;;;;;;5022054;28;20489;-84
2023/10/23 05:12:38;;;;;;;9.95;5.70;;;;;;;;;;5025881;28;20496;-84
2023/10/23 05:15:05;;;;;;;9.00;5.18;;;;;;;;;;5027378;28;20592;-84
2023/10/23 05:17:30;;;;;;;10.38;5.43;;;;;;;;;;5021848;28;20493;-84
2023/10/23 05:19:56;;;;;;;8.73;5.35;;;;;;;;;;5022139;28;20059;-84
2023/10/23 05:22:21;;;;;;;10.05;5.20;;;;;;;;;;5029483;28;20397;-84
2023/10/23 05:24:47;;;;;;;9.05;5.38;;;;;;;;;;5023807;28;20025;-84
2023/10/23 05:27:13;;;;;;;7.18;5.03;;;;;;;;;;5039906;28;20021;-84
2023/10/23 05:29:39;;;;;;;8.13;5.22;;;;;;;;;;5030471;28;20025;-83
2023/10/23 05:32:05;;;;;;;6.47;4.93;;;;;;;;;;5029074;28;20112;-81
2023/10/23 05:34:30;;;;;;;7.63;5.15;;;;;;;;;;5030045;28;20033;-83
2023/10/23 05:36:56;;;;;;;9.20;4.95;;;;;;;;;;5028707;28;20112;-81
2023/10/23 05:39:21;;;;;;;8.82;5.45;;;;;;;;;;5026770;28;20048;-82
2023/10/23 05:41:46;;;;;;;8.57;5.30;;;;;;;;;;5029682;28;20061;-81
2023/10/23 05:44:12;;;;;;;8.25;5.40;;;;;;;;;;5027988;28;20400;-81
2023/10/23 05:46:37;;;;;;;8.60;5.28;;;;;;;;;;5024588;28;20029;-81
2023/10/23 05:49:02;;;;;;;9.07;5.80;;;;;;;;;;5025028;28;20033;-81
2023/10/23 05:51:28;;;;;;;9.23;5.70;;;;;;;;;;5023859;28;20113;-81
2023/10/23 05:53:53;;;;;;;9.07;5.45;;;;;;;;;;5026405;28;20095;-81
2023/10/23 05:56:19;;;;;;;9.88;5.72;;;;;;;;;;5028851;28;20029;-82
2023/10/23 05:58:46;;;;;;;7.75;5.40;;;;;;;;;;5025194;28;20444;-81
2023/10/23 06:01:12;;;;;;;10.05;5.70;;;;;;;;;;5024181;28;20438;-82
2023/10/23 06:03:38;;;;;;;9.65;5.82;;;;;;;;;;5028195;28;20061;-81
2023/10/23 06:06:03;;;;;;;7.85;5.45;;;;;;;;;;5033579;28;20026;-81
2023/10/23 06:08:29;;;;;;;7.80;5.10;;;;;;;;;;5038917;28;20386;-81
2023/10/23 06:10:54;;;;;;;9.73;6.00;;;;;;;;;;5032269;28;20437;-82
2023/10/23 06:13:23;;;;;;;10.52;5.60;;;;;;;;;;5031126;28;20370;-82
2023/10/23 06:15:49;;;;;;;11.70;5.78;;;;;;;;;;5027020;28;20544;-81
2023/10/23 06:18:14;;;;;;;10.65;5.82;;;;;;;;;;5028433;28;20021;-83
2023/10/23 06:20:39;;;;;;;11.48;6.55;;;;;;;;;;5032857;28;20041;-83
2023/10/23 06:23:05;;;;;;;10.77;6.43;;;;;;;;;;5034932;28;20555;-83
2023/10/23 06:25:31;;;;;;;9.50;5.85;;;;;;;;;;5031695;28;20482;-83
2023/10/23 06:27:57;;;;;;;10.68;6.03;;;;;;;;;;5037725;28;20029;-83
2023/10/23 06:30:23;;;;;;;9.38;5.68;;;;;;;;;;5038758;28;20029;-81
2023/10/23 06:32:48;;;;;;;9.45;5.25;;;;;;;;;;5028430;28;21148;-81
2023/10/23 06:35:15;;;;;;;8.15;5.53;;;;;;;;;;5024764;28;20057;-80
2023/10/23 06:37:40;;;;;;;7.82;4.97;;;;;;;;;;5026835;28;20653;-81
2023/10/23 06:40:06;;;;;;;8.77;5.60;;;;;;;;;;5037423;28;20064;-81
2023/10/23 06:42:32;;;;;;;8.82;4.75;;;;;;;;;;5025091;28;20381;-85
2023/10/23 06:44:58;;;;;;;8.98;5.18;;;;;;;;;;5027445;28;20378;-82
2023/10/23 06:47:24;;;;;;;8.35;4.85;;;;;;;;;;5032533;28;20492;-82
2023/10/23 06:49:49;;;;;;;9.32;5.20;;;;;;;;;;5030610;28;20021;-82
2023/10/23 06:52:14;;;;;;;7.53;4.60;;;;;;;;;;5031203;28;20071;-85
2023/10/23 06:54:40;;;;;;;7.50;4.00;;;;;;;;;;5027077;28;20033;-85
2023/10/23 06:57:06;;;;;;;6.72;4.13;;;;;;;;;;5025268;28;20021;-81
2023/10/23 06:59:33;;;;;;;6.07;4.00;;;;;;;;;;5023209;28;20031;-81
2023/10/23 07:01:59;;;;;;;5.53;4.15;;;;;;;;;;5041499;28;20025;-81
2023/10/23 07:04:24;;;;;;;6.93;3.90;;;;;;;;;;5030199;28;20080;-82
2023/10/23 07:06:49;;;;;;;6.68;3.80;;;;;;;;;;5029073;28;20018;-83
2023/10/23 07:09:16;;;;;;;7.25;4.07;;;;;;;;;;5037858;28;20539;-83
2023/10/23 07:11:42;;;;;;;5.97;3.58;;;;;;;;;;5025785;28;20033;-82
2023/10/23 07:14:07;;;;;;;5.53;3.40;;;;;;;;;;5029468;28;20032;-82
2023/10/23 07:16:33;;;;;;;4.88;3.45;;;;;;;;;;5028815;28;20022;-82
2023/10/23 07:18:58;;;;;;;6.53;4.10;;;;;;;;;;5020645;28;20370;-83
2023/10/23 07:21:25;;;;;;;6.25;4.20;;;;;;;;;;5026895;28;20087;-83
2023/10/23 07:23:51;;;;;;;6.35;4.55;;;;;;;;;;5025743;28;20029;-82
2023/10/23 07:26:16;;;;;;;6.45;4.18;;;;;;;;;;5026080;28;20030;-82
2023/10/23 07:28:42;;;;;;;9.15;4.63;;;;;;;;;;5040167;28;21267;-81
2023/10/23 07:31:09;;;;;;;6.13;4.07;;;;;;;;;;5027076;28;20030;-81
2023/10/23 07:33:34;;;;;;;6.22;3.80;;;;;;;;;;5045495;28;20064;-81
2023/10/23 07:36:11;;;;;;;6.05;4.07;;;;;;;;;;5041477;28;20056;-81
2023/10/23 07:38:40;;;;;;;6.53;4.15;;;;;;;;;;5026861;28;20441;-81
2023/10/23 07:41:06;;;;;;;5.40;3.85;;;;;;;;;;5029353;28;20029;-81
2023/10/23 07:43:31;;;;;;;6.63;3.83;;;;;;;;;;5033284;28;20048;-81
2023/10/23 07:45:57;;;;;;;5.68;4.00;;;;;;;;;;5031125;28;20044;-82
2023/10/23 07:48:24;;;;;;;5.82;3.58;;;;;;;;;;5048539;28;20033;-81
2023/10/23 07:50:50;;;;;;;6.30;3.78;;;;;;;;;;5032546;28;20366;-81
2023/10/23 07:53:15;;;;;;;7.47;4.05;;;;;;;;;;5032787;28;20028;-82
2023/10/23 07:55:40;;;;;;;6.88;4.38;;;;;;;;;;5028263;28;20036;-81
2023/10/23 07:58:06;;;;;;;6.22;3.92;;;;;;;;;;5033209;28;20417;-81
2023/10/23 08:00:31;;;;;;;6.45;3.55;;;;;;;;;;5034190;28;20033;-81
2023/10/23 08:02:57;;;;;;;6.07;3.78;;;;;;;;;;5031599;28;20868;-81
2023/10/23 08:05:22;;;;;;;5.78;3.78;;;;;;;;;;5033987;28;20072;-80
2023/10/23 08:07:48;;;;;;;8.25;4.75;;;;;;;;;;5031191;28;20037;-81
2023/10/23 08:10:14;;;;;;;7.90;4.80;;;;;;;;;;5028334;28;20493;-81
2023/10/23 08:12:40;;;;;;;6.70;3.85;;;;;;;;;;5035140;28;20053;-82
2023/10/23 08:15:06;;;;;;;7.72;4.25;;;;;;;;;;5026821;28;20096;-83
2023/10/23 08:17:31;;;;;;;7.32;4.72;;;;;;;;;;5027420;28;20026;-83
2023/10/23 08:19:57;;;;;;;7.68;4.85;;;;;;;;;;5033092;28;20041;-82
2023/10/23 08:22:23;;;;;;;6.00;4.20;;;;;;;;;;5031471;28;20034;-82
2023/10/23 08:24:48;;;;;;;8.00;4.90;;;;;;;;;;5033341;28;20047;-82
2023/10/23 08:27:15;;;;;;;7.65;4.55;;;;;;;;;;5031674;28;20396;-82
2023/10/23 08:29:40;;;;;;;6.65;3.90;;;;;;;;;;5043003;28;20072;-83
2023/10/23 08:32:07;;;;;;;7.82;4.00;;;;;;;;;;5028326;28;20485;-82
2023/10/23 08:34:35;;;;;;;7.05;4.40;;;;;;;;;;5033376;28;20101;-83
2023/10/23 08:37:03;;;;;;;6.97;4.32;;;;;;;;;;5028255;28;20079;-83
2023/10/23 08:39:29;;;;;;;7.53;4.53;;;;;;;;;;5024552;28;20382;-83
2023/10/23 08:41:57;;;;;;;7.95;4.45;;;;;;;;;;5046228;28;20108;-83
2023/10/23 08:44:22;;;;;;;8.73;4.72;;;;;;;;;;5030889;28;20032;-83
2023/10/23 08:46:49;;;;;;;7.68;4.85;;;;;;;;;;5031831;28;20385;-82
2023/10/23 08:49:14;;;;;;;7.32;4.65;;;;;;;;;;5028453;28;20026;-82
2023/10/23 08:51:41;;;;;;;7.00;4.50;;;;;;;;;;5029907;28;20354;-82
2023/10/23 08:54:11;;;;;;;8.07;4.90;;;;;;;;;;5032702;28;20021;-82
2023/10/23 08:56:38;;;;;;;6.22;3.78;;;;;;;;;;5024623;28;20151;-82
2023/10/23 08:59:05;;;;;;;7.40;4.70;;;;;;;;;;5033809;28;20063;-82
2023/10/23 09:01:32;;;;;;;7.78;4.57;;;;;;;;;;5030613;28;20033;-82
2023/10/23 09:03:58;;;;;;;7.80;4.65;;;;;;;;;;5037838;28;20397;-83
2023/10/23 09:06:23;;;;;;;8.20;5.10;;;;;;;;;;5030655;28;20033;-82
2023/10/23 09:08:49;;;;;;;8.10;5.45;;;;;;;;;;5032584;28;20033;-83
2023/10/23 09:11:14;;;;;;;10.73;5.60;;;;;;;;;;5023728;28;20030;-82
2023/10/23 09:13:41;;;;;;;8.50;5.30;;;;;;;;;;5024926;28;20026;-82
2023/10/23 09:16:10;;;;;;;9.82;5.90;;;;;;;;;;5031002;28;20053;-82
2023/10/23 09:18:49;;;;;;;9.95;5.68;;;;;;;;;;5041179;28;20109;-82
2023/10/23 09:21:15;;;;;;;9.90;6.00;;;;;;;;;;5029075;28;20045;-82
2023/10/23 09:24:03;;;;;;;12.52;6.57;;;;;;;;;;5027576;28;20473;-81
2023/10/23 09:26:28;;;;;;;8.80;5.75;;;;;;;;;;5033003;28;20528;-89
2023/10/23 09:28:54;;;;;;;11.15;6.43;;;;;;;;;;5032416;28;20167;-89
2023/10/23 09:31:20;;;;;;;10.63;7.32;;;;;;;;;;5032284;28;20029;-89
2023/10/23 09:33:48;;;;;;;9.50;6.18;;;;;;;;;;5030448;28;20052;-89
2023/10/23 09:36:14;;;;;;;10.65;6.68;;;;;;;;;;5032976;28;20026;-88
2023/10/23 09:38:42;;;;;;;11.10;6.95;;;;;;;;;;5030785;28;21910;-87
2023/10/23 09:41:11;;;;;;;10.45;6.43;;;;;;;;;;5030062;28;20049;-89
2023/10/23 09:43:45;;;;;;;12.43;6.50;;;;;;;;;;5032707;28;20512;-89
2023/10/23 09:46:12;;;;;;;9.73;6.50;;;;;;;;;;5026953;28;20402;-88
2023/10/23 09:48:40;;;;;;;10.70;6.38;;;;;;;;;;5026072;28;20521;-88
2023/10/23 09:51:14;;;;;;;11.70;7.15;;;;;;;;;;5046412;28;20029;-88
2023/10/23 09:53:49;;;;;;;11.38;6.03;;;;;;;;;;5032284;28;20554;-89
2023/10/23 09:56:21;;;;;;;11.38;7.05;;;;;;;;;;5024884;28;20025;-89
2023/10/23 09:58:53;;;;;;;9.85;6.47;;;;;;;;;;5022840;28;20104;-87
2023/10/23 10:01:25;;;;;;;11.70;6.53;;;;;;;;;;5031196;28;20079;-88
2023/10/23 10:03:52;;;;;;;13.73;7.32;;;;;;;;;;5034068;28;20033;-89
2023/10/23 10:06:22;;;;;;;13.70;7.40;;;;;;;;;;5032064;28;20473;-88
2023/10/23 10:08:50;;;;;;;10.90;7.22;;;;;;;;;;5029723;28;20037;-89
2023/10/23 10:11:17;;;;;;;14.80;7.55;;;;;;;;;;5031296;28;20021;-89
2023/10/23 10:13:43;;;;;;;11.20;6.97;;;;;;;;;;5031824;28;20017;-89
2023/10/23 10:16:10;;;;;;;12.32;7.28;;;;;;;;;;5045140;28;20109;-89
2023/10/23 10:18:36;;;;;;;12.35;7.53;;;;;;;;;;5028574;28;20553;-89
2023/10/23 10:21:05;;;;;;;15.35;7.88;;;;;;;;;;5031596;28;20540;-88
2023/10/23 10:23:32;;;;;;;13.73;7.55;;;;;;;;;;5031512;28;20025;-88
2023/10/23 10:26:00;;;;;;;12.77;6.90;;;;;;;;;;5029958;28;20037;-86
2023/10/23 10:28:26;;;;;;;10.38;6.75;;;;;;;;;;5032687;28;20028;-88
2023/10/23 10:30:52;;;;;;;11.30;7.20;;;;;;;;;;5025056;28;20063;-89
2023/10/23 10:33:31;;;;;;;13.00;7.18;;;;;;;;;;5031445;28;20097;-88
2023/10/23 10:36:05;;;;;;;10.93;7.32;;;;;;;;;;5030215;28;20045;-88
2023/10/23 10:38:34;;;;;;;12.48;7.43;;;;;;;;;;5025300;28;20021;-90
2023/10/23 10:41:05;;;;;;;13.73;7.90;;;;;;;;;;5034978;28;20037;-90
2023/10/23 10:43:32;;;;;;;13.43;7.40;;;;;;;;;;5031758;28;20025;-88
2023/10/23 10:46:00;;;;;;;12.45;7.78;;;;;;;;;;5033495;28;20021;-89
2023/10/23 10:48:40;;;;;;;11.73;7.43;;;;;;;;;;5044736;28;20478;-89
2023/10/23 10:51:06;;;;;;;11.73;7.28;;;;;;;;;;5036855;28;20084;-87
2023/10/23 10:53:31;;;;;;;10.95;7.45;;;;;;;;;;5038106;28;20087;-90
2023/10/23 10:55:56;;;;;;;13.43;7.80;;;;;;;;;;5040519;28;20033;-87
2023/10/23 10:58:23;;;;;;;12.82;7.43;;;;;;;;;;5033041;28;20013;-88
2023/10/23 11:00:49;;;;;;;13.73;8.18;;;;;;;;;;5025725;28;20025;-87
2023/10/23 11:03:16;;;;;;;12.25;7.88;;;;;;;;;;5027632;28;20473;-89
2023/10/23 11:05:46;;;;;;;12.38;7.60;;;;;;;;;;5044129;28;20040;-89
2023/10/23 11:08:11;;;;;;;11.57;7.53;;;;;;;;;;5034102;28;20033;-89
2023/10/23 11:10:37;;;;;;;11.68;7.43;;;;;;;;;;5028119;28;20493;-89
2023/10/23 11:13:02;;;;;;;13.07;7.50;;;;;;;;;;5032924;28;20057;-86
2023/10/23 11:15:28;;;;;;;13.82;7.45;;;;;;;;;;5032622;28;20021;-86
2023/10/23 11:17:53;;;;;;;11.73;7.63;;;;;;;;;;5034442;28;20143;-90
2023/10/23 11:20:19;;;;;;;10.55;7.20;;;;;;;;;;5034855;28;20033;-87
2023/10/23 11:22:47;;;;;;;13.15;6.63;;;;;;;;;;5033331;28;20026;-90
2023/10/23 11:25:14;;;;;;;11.05;6.78;;;;;;;;;;5036275;28;20055;-88
2023/10/23 11:27:40;;;;;;;10.25;6.32;;;;;;;;;;5032342;28;20030;-89
2023/10/23 11:30:07;;;;;;;8.95;6.15;;;;;;;;;;5030375;28;20022;-89
2023/10/23 11:32:33;;;;;;;11.40;6.70;;;;;;;;;;5035299;28;20036;-90
2023/10/23 11:35:02;;;;;;;9.73;6.03;;;;;;;;;;5029369;28;20466;-89
2023/10/23 11:37:31;;;;;;;8.50;5.47;;;;;;;;;;5030324;28;20022;-89
2023/10/23 11:39:56;;;;;;;8.57;5.32;;;;;;;;;;5028581;28;20079;-90
2023/10/23 11:42:22;;;;;;;11.32;6.05;;;;;;;;;;5030781;28;20030;-82
2023/10/23 11:44:47;;;;;;;13.13;5.68;;;;;;;;;;5030593;28;20032;-86
2023/10/23 11:47:13;;;;;;;7.35;4.72;;;;;;;;;;5024128;28;20025;-86
2023/10/23 11:49:38;;;;;;;11.35;5.60;;;;;;;;;;5028800;28;20243;-86
2023/10/23 11:52:04;;;;;;;12.50;5.38;;;;;;;;;;5032165;28;20091;-82
2023/10/23 11:54:29;;;;;;;9.18;5.68;;;;;;;;;;5026948;28;20034;-81
2023/10/23 11:56:56;;;;;;;10.65;5.65;;;;;;;;;;5031703;28;20116;-81
2023/10/23 11:59:22;;;;;;;10.13;5.00;;;;;;;;;;5028774;28;20041;-81
2023/10/23 12:01:49;;;;;;;12.32;5.43;;;;;;;;;;5022631;28;20093;-81
2023/10/23 12:04:14;;;;;;;12.07;5.43;;;;;;;;;;5037601;28;20484;-81
2023/10/23 12:06:40;;;;;;;10.20;5.20;;;;;;;;;;5031389;28;20022;-81
2023/10/23 12:09:07;;;;;;;18.42;5.28;;;;;;;;;;5031833;28;20494;-82
2023/10/23 12:11:33;;;;;;;10.95;4.80;;;;;;;;;;5030166;28;20474;-82
2023/10/23 12:14:01;;;;;;;11.38;4.47;;;;;;;;;;5033353;28;20068;-81
2023/10/23 12:16:27;;;;;;;8.85;4.25;;;;;;;;;;5032996;28;20037;-83
2023/10/23 12:18:53;;;;;;;12.68;4.97;;;;;;;;;;5038133;28;20115;-83
2023/10/23 12:21:21;;;;;;;11.38;4.38;;;;;;;;;;5033940;28;20529;-83
2023/10/23 12:23:47;;;;;;;11.93;3.88;;;;;;;;;;5024666;28;20033;-83
2023/10/23 12:26:13;;;;;;;14.30;5.03;;;;;;;;;;5028742;28;20036;-83
2023/10/23 12:28:38;;;;;;;12.68;4.93;;;;;;;;;;5032955;28;20022;-83
2023/10/23 12:31:04;;;;;;;10.52;4.20;;;;;;;;;;5033399;28;20112;-83
2023/10/23 12:33:33;;;;;;;11.68;5.18;;;;;;;;;;5030145;28;20032;-83
2023/10/23 12:36:04;;;;;;;15.15;5.35;;;;;;;;;;5029707;28;20064;-83
2023/10/23 12:38:35;;;;;;;9.35;4.70;;;;;;;;;;5042030;28;20028;-83
2023/10/23 12:41:01;;;;;;;11.30;4.78;;;;;;;;;;5030417;28;20060;-83
2023/10/23 12:43:26;;;;;;;11.20;5.28;;;;;;;;;;5032512;28;20025;-83
2023/10/23 12:45:52;;;;;;;9.60;4.78;;;;;;;;;;5033458;28;20061;-83
2023/10/23 12:48:17;;;;;;;11.55;4.72;;;;;;;;;;5034050;28;20029;-83
2023/10/23 12:50:43;;;;;;;8.40;4.63;;;;;;;;;;5031076;28;20100;-83
2023/10/23 12:53:09;;;;;;;12.95;5.50;;;;;;;;;;5033055;28;20048;-83
2023/10/23 12:55:35;;;;;;;10.18;5.28;;;;;;;;;;5028640;28;20398;-83
2023/10/23 12:58:04;;;;;;;11.05;5.13;;;;;;;;;;5031533;28;20076;-88
2023/10/23 13:00:33;;;;;;;12.85;5.72;;;;;;;;;;5030758;28;20036;-90
2023/10/23 13:02:58;;;;;;;10.77;5.25;;;;;;;;;;5029070;28;20030;-89
2023/10/23 13:05:23;;;;;;;11.18;5.60;;;;;;;;;;5032666;28;20366;-87
2023/10/23 13:07:49;;;;;;;11.25;4.75;;;;;;;;;;5032258;28;20048;-86
2023/10/23 13:10:14;;;;;;;10.85;5.18;;;;;;;;;;5027826;28;20488;-87
2023/10/23 13:12:40;;;;;;;11.95;4.88;;;;;;;;;;5024389;28;20474;-89
2023/10/23 13:15:06;;;;;;;10.60;4.70;;;;;;;;;;5030345;28;20025;-89
2023/10/23 13:17:32;;;;;;;9.88;4.60;;;;;;;;;;5039826;28;20480;-90
2023/10/23 13:19:57;;;;;;;9.10;4.78;;;;;;;;;;5029338;28;20060;-90
2023/10/23 13:22:22;;;;;;;8.10;4.82;;;;;;;;;;5028268;28;20060;-88
2023/10/23 13:24:48;;;;;;;10.15;4.82;;;;;;;;;;5031322;28;20029;-87
2023/10/23 13:27:15;;;;;;;14.32;5.15;;;;;;;;;;5031108;28;20097;-89
2023/10/23 13:29:44;;;;;;;10.00;4.63;;;;;;;;;;5031521;28;20025;-89
2023/10/23 13:32:11;;;;;;;12.18;5.10;;;;;;;;;;5034661;28;20025;-89
2023/10/23 13:34:37;;;;;;;12.27;4.40;;;;;;;;;;5028098;28;20017;-89
2023/10/23 13:37:02;;;;;;;10.00;4.22;;;;;;;;;;5034423;28;20390;-89
2023/10/23 13:39:28;;;;;;;10.50;4.38;;;;;;;;;;5039273;28;20026;-90
2023/10/23 13:41:53;;;;;;;9.55;5.13;;;;;;;;;;5031862;28;20026;-90
2023/10/23 13:44:19;;;;;;;10.85;4.68;;;;;;;;;;5031503;28;20168;-91
2023/10/23 13:46:45;;;;;;;12.05;4.85;;;;;;;;;;5024327;28;20045;-89
2023/10/23 13:49:11;;;;;;;10.57;4.80;;;;;;;;;;5031196;28;20114;-89
2023/10/23 13:51:36;;;;;;;10.40;4.63;;;;;;;;;;5032714;28;20096;-90
2023/10/23 13:54:02;;;;;;;8.20;4.57;;;;;;;;;;5031555;28;20025;-90
2023/10/23 13:56:28;;;;;;;11.82;4.78;;;;;;;;;;5032614;28;20025;-89
2023/10/23 13:58:53;;;;;;;12.23;5.20;;;;;;;;;;5034325;28;20057;-88
2023/10/23 14:01:18;;;;;;;10.07;4.85;;;;;;;;;;5029906;28;20485;-89
2023/10/23 14:03:44;;;;;;;14.68;5.50;;;;;;;;;;5030335;28;20031;-86
2023/10/23 14:06:10;;;;;;;12.63;5.60;;;;;;;;;;5026937;28;20029;-89
2023/10/23 14:08:37;;;;;;;15.77;5.57;;;;;;;;;;5045080;28;20028;-89
2023/10/23 14:11:03;;;;;;;12.27;5.65;;;;;;;;;;5031640;28;20029;-89
2023/10/23 14:13:28;;;;;;;12.65;5.90;;;;;;;;;;5031897;28;20021;-85
2023/10/23 14:15:53;;;;;;;12.60;5.93;;;;;;;;;;5027837;28;20033;-85
2023/10/23 14:18:19;;;;;;;10.25;5.55;;;;;;;;;;5037659;28;20484;-85
2023/10/23 14:20:45;;;;;;;13.73;6.97;;;;;;;;;;5027197;28;20032;-85
2023/10/23 14:23:11;;;;;;;11.82;5.82;;;;;;;;;;5026106;28;20025;-81
2023/10/23 14:25:38;;;;;;;12.68;5.68;;;;;;;;;;5030015;28;20060;-82
2023/10/23 14:28:04;;;;;;;11.55;5.82;;;;;;;;;;5029531;28;20029;-82
2023/10/23 14:30:29;;;;;;;10.95;5.50;;;;;;;;;;5027669;28;20025;-85
2023/10/23 14:32:55;;;;;;;10.93;5.43;;;;;;;;;;5024787;28;20128;-81